Airfield :
LOGIN :

Register | Disclaimer

   EN    FR    IT 

 










Legend :    VFR   Marginal VFR   IFR   Intensive IFR   Very Intensive IFR
Visi :
Ceiling :
>= 8 km
>= 3000ft
5 to 8 km
1000 to 3000 ft
1500m to 5 km
500 to 1000 ft
800 to 1500m
200 to 500 ft
< 800m
< 200 ft
Symbols :   Thunderstorms  Fog  Heavy snow  Heavy precipitations  Wind > 20 kt
SIGMETs :     Misc.  Thunderstorms  Icing  Turbulence  Mountain Waves  Volcanic Ashes






- Airport Elevation : 116 ft
- IATA code : ISC


EGHE - Scilly Isles / St Mary's

CURRENT METAR :
  • 250920Z 35012KT 9999 FEW008 BKN014 14/13 Q1021

EXPIRED METARs :
  • 250850Z 35012KT 7000 -DZ SCT005 BKN013 14/13 Q1021
  • 250820Z 35011KT 2500 -DZ BR FEW000 OVC002 14/13 Q1021
  • 250750Z 33007KT 9999 FEW005 BKN009 14/14 Q1021
  • 250720Z 31010KT 3500 -DZ BR SCT002 BKN007 14/14 Q1021
  • 250650Z 31009KT 1800 BR BKN002 14/14 Q1021

TAF TAF EGHE
Valid from the 25 at 09:00 until the 25 at 18:00 UTC


250802Z 2509/2518 33009KT 2000 RADZ BR BKN002
BECMG 2509/2511 9999 NSW SCT018
PROB30
TEMPO 2516/2518 6000 -SHRA BKN009



MET'MAP, your aeronautical weather chart ! - Copyright ORBIFLY December 2007 - Disclaimer

ORBIFLY MET'MAP TEAM :

Programming & Development : Alexandra Zaïnal
Concept & original design : Baudouin d'Aumeries
Assistance for programming : Marc-Olivier Méhu
Technical & hardware support : Manuel Goepfert

Contact : metmap@orbifly.com




SOURCES & CREDITS :

   NOAA